FK-0018 weather

New Island Airport
New Island, Falkland Islands

Public forecast

Using degrees Celsius for public forecast. Weather courtesy of forecast.io.

METAR (pilot weather report)

Closest report is Mount Pleasant Airport, 105.4 nm (195.1 km) E. Retrieved 2019/07/21 19:50 UTC (49 minutes ago):

EGYP 211950Z 28003KT 9999 FEW017 04/01 Q0987 BLU NOSIG

TAF (pilot weather forecast)

Closest forecast is Mount Pleasant Airport, 105.4 nm (195.1 km) E. Retrieved 2019/07/21 21:36 UTC (0 seconds ago):

TAF EGYP 211933Z 2121/2215 30010KT 9999 FEW020 PROB30 TEMPO 2121/2207 SCT020 BECMG 2200/2203 27015KT PROB30 TEMPO 2213/2215 26015G25KT -SHRA SCT018